CFG3EV EDDM-LGKR
Flight info
| Callsign | CFG3EV |
|---|---|
| Flight time | N/A |
| Altitude | 35000 |
| Route | VAVOR3S VAVOR M867 RADIZ DCT GIMIX DCT SABAD DCT SIRMI DCT TIKSA DCT RODON DCT LIMJA/N0375F190 N732 PITAS |
| Aircraft | A320/M-SDE2FGHIJ1RWXY/LB1 |
Departure
| Time | 2026-05-05 15:58 |
|---|---|
| Airport | Munich Airport (EDDM) |
Arrival
| Time | N/A |
|---|---|
| Airport | Corfu Ioannis Kapodistrias International Airport (LGKR) |
| Time | Latitude | Longitude | Altitude | Speed | Heading |
|---|---|---|---|---|---|
| 2026-05-05 15:15 | 48.35278 | 11.78316 | 1477 ft | 0 kts | 83° |
| 2026-05-05 15:45 | 48.35277 | 11.78315 | 1458 ft | 2 kts | 83° |
| 2026-05-05 15:45 | 48.35274 | 11.78277 | 1481 ft | 4 kts | 83° |
| 2026-05-05 15:45 | 48.35271 | 11.78238 | 1474 ft | 4 kts | 95° |
| 2026-05-05 15:45 | 48.35280 | 11.78210 | 1479 ft | 4 kts | 166° |
| 2026-05-05 15:46 | 48.35300 | 11.78206 | 1480 ft | 3 kts | 173° |
| 2026-05-05 15:46 | 48.35305 | 11.78205 | 1479 ft | 0 kts | 173° |
| 2026-05-05 15:49 | 48.35289 | 11.78208 | 1480 ft | 2 kts | 173° |
| 2026-05-05 15:49 | 48.35286 | 11.78208 | 1482 ft | 0 kts | 173° |
| 2026-05-05 15:50 | 48.35277 | 11.78210 | 1479 ft | 2 kts | 173° |
| 2026-05-05 15:50 | 48.35228 | 11.78219 | 1479 ft | 10 kts | 173° |
| 2026-05-05 15:50 | 48.35180 | 11.78228 | 1477 ft | 5 kts | 173° |
| 2026-05-05 15:50 | 48.35134 | 11.78235 | 1473 ft | 9 kts | 174° |
| 2026-05-05 15:51 | 48.35061 | 11.78248 | 1479 ft | 12 kts | 173° |
| 2026-05-05 15:51 | 48.34990 | 11.78260 | 1485 ft | 8 kts | 173° |
| 2026-05-05 15:51 | 48.34934 | 11.78269 | 1485 ft | 8 kts | 177° |
| 2026-05-05 15:51 | 48.34890 | 11.78223 | 1483 ft | 9 kts | 247° |
| 2026-05-05 15:52 | 48.34880 | 11.78123 | 1477 ft | 11 kts | 263° |
| 2026-05-05 15:52 | 48.34845 | 11.78043 | 1481 ft | 9 kts | 203° |
| 2026-05-05 15:52 | 48.34768 | 11.78047 | 1475 ft | 13 kts | 173° |
| 2026-05-05 15:52 | 48.34694 | 11.78074 | 1479 ft | 8 kts | 137° |
| 2026-05-05 15:53 | 48.34684 | 11.78169 | 1479 ft | 14 kts | 83° |
| 2026-05-05 15:53 | 48.34699 | 11.78358 | 1476 ft | 21 kts | 84° |
| 2026-05-05 15:53 | 48.34715 | 11.78552 | 1485 ft | 17 kts | 83° |
| 2026-05-05 15:53 | 48.34729 | 11.78745 | 1483 ft | 21 kts | 84° |
| 2026-05-05 15:54 | 48.34746 | 11.78975 | 1485 ft | 21 kts | 84° |
| 2026-05-05 15:54 | 48.34761 | 11.79164 | 1485 ft | 15 kts | 82° |
| 2026-05-05 15:54 | 48.34772 | 11.79306 | 1477 ft | 14 kts | 83° |
| 2026-05-05 15:54 | 48.34785 | 11.79479 | 1485 ft | 18 kts | 84° |
| 2026-05-05 15:55 | 48.34799 | 11.79638 | 1473 ft | 13 kts | 83° |
| 2026-05-05 15:55 | 48.34805 | 11.79715 | 1485 ft | 11 kts | 84° |
| 2026-05-05 15:55 | 48.34814 | 11.79847 | 1485 ft | 14 kts | 83° |
| 2026-05-05 15:55 | 48.34823 | 11.79973 | 1485 ft | 10 kts | 83° |
| 2026-05-05 15:56 | 48.34832 | 11.80093 | 1485 ft | 13 kts | 91° |
| 2026-05-05 15:56 | 48.34799 | 11.80184 | 1482 ft | 9 kts | 128° |
| 2026-05-05 15:56 | 48.34744 | 11.80238 | 1483 ft | 10 kts | 167° |
| 2026-05-05 15:56 | 48.34691 | 11.80249 | 1475 ft | 6 kts | 172° |
| 2026-05-05 15:57 | 48.34649 | 11.80256 | 1485 ft | 10 kts | 173° |
| 2026-05-05 15:57 | 48.34576 | 11.80269 | 1477 ft | 13 kts | 173° |
| 2026-05-05 15:57 | 48.34490 | 11.80277 | 1480 ft | 11 kts | 194° |
| 2026-05-05 15:57 | 48.34459 | 11.80176 | 1485 ft | 16 kts | 263° |
| 2026-05-05 15:58 | 48.34421 | 11.79689 | 1475 ft | 80 kts | 263° |
| 2026-05-05 15:58 | 48.34335 | 11.78569 | 1474 ft | 134 kts | 263° |
| 2026-05-05 15:58 | 48.34215 | 11.76966 | 1612 ft | 166 kts | 259° |
| 2026-05-05 15:58 | 48.34079 | 11.75251 | 2425 ft | 163 kts | 264° |
| 2026-05-05 15:59 | 48.33942 | 11.73512 | 2974 ft | 177 kts | 267° |
| 2026-05-05 15:59 | 48.33576 | 11.71656 | 3245 ft | 205 kts | 237° |
| 2026-05-05 15:59 | 48.32302 | 11.70440 | 3632 ft | 229 kts | 198° |
| 2026-05-05 15:59 | 48.30691 | 11.70185 | 4308 ft | 234 kts | 182° |
| 2026-05-05 16:00 | 48.29079 | 11.70431 | 5065 ft | 236 kts | 162° |
| 2026-05-05 16:00 | 48.27637 | 11.71665 | 5655 ft | 248 kts | 142° |
| 2026-05-05 16:00 | 48.26207 | 11.73332 | 6026 ft | 270 kts | 145° |
| 2026-05-05 16:00 | 48.24653 | 11.74990 | 6713 ft | 277 kts | 147° |
| 2026-05-05 16:01 | 48.23050 | 11.76633 | 7554 ft | 280 kts | 148° |
| 2026-05-05 16:01 | 48.21428 | 11.78262 | 8441 ft | 282 kts | 148° |
| 2026-05-05 16:01 | 48.19791 | 11.79900 | 9322 ft | 284 kts | 149° |
| 2026-05-05 16:01 | 48.18178 | 11.81628 | 10125 ft | 288 kts | 141° |
| 2026-05-05 16:02 | 48.16770 | 11.83876 | 10542 ft | 308 kts | 133° |
| 2026-05-05 16:02 | 48.15340 | 11.86443 | 10753 ft | 332 kts | 132° |
| 2026-05-05 16:02 | 48.13840 | 11.89175 | 11208 ft | 344 kts | 132° |
| 2026-05-05 16:02 | 48.12316 | 11.91973 | 11877 ft | 349 kts | 131° |
| 2026-05-05 16:03 | 48.10773 | 11.94803 | 12567 ft | 354 kts | 131° |
| 2026-05-05 16:03 | 48.09184 | 11.97656 | 13253 ft | 357 kts | 136° |
| 2026-05-05 16:03 | 48.07324 | 12.00097 | 13859 ft | 359 kts | 143° |
| 2026-05-05 16:03 | 48.05381 | 12.02468 | 14511 ft | 361 kts | 143° |
| 2026-05-05 16:04 | 48.03417 | 12.04851 | 15150 ft | 364 kts | 143° |
| 2026-05-05 16:04 | 48.01450 | 12.07232 | 15769 ft | 367 kts | 144° |
| 2026-05-05 16:04 | 47.99462 | 12.09639 | 16401 ft | 369 kts | 144° |
| 2026-05-05 16:04 | 47.97458 | 12.12065 | 17039 ft | 372 kts | 144° |
| 2026-05-05 16:05 | 47.95437 | 12.14507 | 17662 ft | 374 kts | 144° |
| 2026-05-05 16:05 | 47.93411 | 12.16954 | 18249 ft | 377 kts | 144° |
| 2026-05-05 16:05 | 47.91365 | 12.19426 | 18801 ft | 379 kts | 144° |
| 2026-05-05 16:05 | 47.89287 | 12.21935 | 19363 ft | 381 kts | 144° |
| 2026-05-05 16:06 | 47.87219 | 12.24425 | 19929 ft | 383 kts | 144° |
| 2026-05-05 16:06 | 47.85138 | 12.26929 | 20477 ft | 385 kts | 144° |
| 2026-05-05 16:06 | 47.83073 | 12.29410 | 21020 ft | 388 kts | 144° |
| 2026-05-05 16:06 | 47.80940 | 12.31970 | 21575 ft | 390 kts | 144° |
| 2026-05-05 16:07 | 47.78825 | 12.34508 | 22098 ft | 392 kts | 144° |
| 2026-05-05 16:07 | 47.76690 | 12.37066 | 22624 ft | 394 kts | 144° |
| 2026-05-05 16:07 | 47.74555 | 12.39624 | 23081 ft | 397 kts | 144° |
| 2026-05-05 16:07 | 47.72396 | 12.42211 | 23519 ft | 400 kts | 145° |
| 2026-05-05 16:08 | 47.70230 | 12.44800 | 23909 ft | 402 kts | 145° |
| 2026-05-05 16:08 | 47.68038 | 12.47417 | 24266 ft | 404 kts | 145° |
| 2026-05-05 16:08 | 47.65845 | 12.50028 | 24658 ft | 406 kts | 145° |
| 2026-05-05 16:08 | 47.63637 | 12.52654 | 24988 ft | 408 kts | 145° |
| 2026-05-05 16:09 | 47.61410 | 12.55270 | 25358 ft | 409 kts | 146° |
| 2026-05-05 16:09 | 47.59134 | 12.57828 | 25740 ft | 411 kts | 147° |
| 2026-05-05 16:09 | 47.56826 | 12.60335 | 26111 ft | 412 kts | 147° |
| 2026-05-05 16:09 | 47.54488 | 12.62833 | 26423 ft | 414 kts | 147° |
| 2026-05-05 16:10 | 47.52154 | 12.65323 | 26809 ft | 416 kts | 147° |
| 2026-05-05 16:10 | 47.49798 | 12.67852 | 27102 ft | 420 kts | 148° |
| 2026-05-05 16:10 | 47.47424 | 12.70414 | 27393 ft | 423 kts | 148° |
| 2026-05-05 16:10 | 47.45044 | 12.72988 | 27724 ft | 426 kts | 147° |
| 2026-05-05 16:11 | 47.42651 | 12.75582 | 28073 ft | 428 kts | 147° |
| 2026-05-05 16:11 | 47.35404 | 12.83434 | 28958 ft | 434 kts | 148° |
| 2026-05-05 16:12 | 47.32963 | 12.86070 | 29274 ft | 436 kts | 147° |
| 2026-05-05 16:12 | 47.28044 | 12.91364 | 29760 ft | 440 kts | 148° |
| 2026-05-05 16:13 | 47.20599 | 12.99350 | 30354 ft | 443 kts | 148° |
| 2026-05-05 16:13 | 47.18102 | 13.02029 | 30581 ft | 444 kts | 148° |
| 2026-05-05 16:13 | 47.15608 | 13.04702 | 30856 ft | 444 kts | 148° |
| 2026-05-05 16:14 | 47.10597 | 13.10054 | 31365 ft | 445 kts | 148° |
| 2026-05-05 16:14 | 47.05543 | 13.15437 | 31838 ft | 447 kts | 148° |
| 2026-05-05 16:15 | 47.00502 | 13.20798 | 32263 ft | 449 kts | 148° |
| 2026-05-05 16:15 | 46.95437 | 13.26177 | 32768 ft | 450 kts | 148° |
| 2026-05-05 16:16 | 46.90359 | 13.31553 | 33321 ft | 450 kts | 148° |
| 2026-05-05 16:16 | 46.85278 | 13.36912 | 33892 ft | 451 kts | 148° |
| 2026-05-05 16:17 | 46.80186 | 13.42286 | 34339 ft | 452 kts | 148° |
| 2026-05-05 16:17 | 46.77630 | 13.44974 | 34508 ft | 453 kts | 148° |
| 2026-05-05 16:18 | 46.72509 | 13.50338 | 34904 ft | 454 kts | 148° |
| 2026-05-05 16:18 | 46.69940 | 13.53024 | 34954 ft | 454 kts | 148° |
| 2026-05-05 16:19 | 46.62218 | 13.61077 | 34977 ft | 455 kts | 149° |
| 2026-05-05 16:19 | 46.54489 | 13.69113 | 34987 ft | 454 kts | 148° |
| 2026-05-05 16:20 | 46.44395 | 13.80110 | 34986 ft | 454 kts | 146° |
| 2026-05-05 16:22 | 46.31876 | 13.94163 | 34981 ft | 456 kts | 147° |
| 2026-05-05 16:23 | 46.21737 | 14.05337 | 35002 ft | 457 kts | 147° |
| 2026-05-05 16:23 | 46.14144 | 14.13689 | 34991 ft | 458 kts | 147° |
| 2026-05-05 16:24 | 46.09062 | 14.19266 | 34995 ft | 460 kts | 147° |
| 2026-05-05 16:25 | 46.01413 | 14.27641 | 34989 ft | 461 kts | 147° |
| 2026-05-05 16:25 | 45.93740 | 14.35980 | 34987 ft | 462 kts | 147° |
| 2026-05-05 16:26 | 45.83484 | 14.47135 | 34989 ft | 463 kts | 146° |
| 2026-05-05 16:27 | 45.78338 | 14.52696 | 34995 ft | 463 kts | 146° |
| 2026-05-05 16:27 | 45.73195 | 14.58239 | 34992 ft | 463 kts | 146° |
| 2026-05-05 16:28 | 45.68045 | 14.63783 | 34990 ft | 463 kts | 146° |
| 2026-05-05 16:28 | 45.63731 | 14.68425 | 35000 ft | 463 kts | 146° |
| 2026-05-05 16:29 | 45.58581 | 14.73938 | 34986 ft | 463 kts | 146° |
| 2026-05-05 16:29 | 45.53411 | 14.79470 | 34988 ft | 465 kts | 146° |
| 2026-05-05 16:30 | 45.48237 | 14.84996 | 34987 ft | 465 kts | 146° |
| 2026-05-05 16:30 | 45.43074 | 14.90567 | 35000 ft | 466 kts | 145° |
| 2026-05-05 16:31 | 45.37992 | 14.96310 | 35002 ft | 466 kts | 144° |
| 2026-05-05 16:31 | 45.32931 | 15.02066 | 34983 ft | 466 kts | 144° |
| 2026-05-05 16:32 | 45.27833 | 15.07771 | 34986 ft | 467 kts | 145° |
| 2026-05-05 16:32 | 45.22704 | 15.13448 | 34992 ft | 467 kts | 145° |
| 2026-05-05 16:33 | 45.17582 | 15.19120 | 34986 ft | 468 kts | 145° |
| 2026-05-05 16:33 | 45.12460 | 15.24815 | 34984 ft | 468 kts | 145° |
| 2026-05-05 16:34 | 45.07328 | 15.30494 | 34985 ft | 469 kts | 146° |
| 2026-05-05 16:34 | 45.02145 | 15.36204 | 34998 ft | 469 kts | 146° |
| 2026-05-05 16:35 | 44.96989 | 15.41880 | 35001 ft | 470 kts | 146° |
| 2026-05-05 16:35 | 44.91837 | 15.47553 | 35020 ft | 470 kts | 145° |
| 2026-05-05 16:36 | 44.86686 | 15.53200 | 35029 ft | 469 kts | 146° |
| 2026-05-05 16:36 | 44.81529 | 15.58819 | 35049 ft | 468 kts | 146° |
| 2026-05-05 16:37 | 44.76383 | 15.64426 | 35055 ft | 468 kts | 146° |
| 2026-05-05 16:37 | 44.71237 | 15.70016 | 35057 ft | 467 kts | 146° |
| 2026-05-05 16:38 | 44.66086 | 15.75611 | 35042 ft | 468 kts | 146° |
| 2026-05-05 16:38 | 44.60934 | 15.81198 | 35047 ft | 468 kts | 146° |
| 2026-05-05 16:39 | 44.55762 | 15.86781 | 35054 ft | 469 kts | 146° |
| 2026-05-05 16:39 | 44.50598 | 15.92342 | 35055 ft | 468 kts | 146° |
| 2026-05-05 16:40 | 44.45433 | 15.97898 | 35047 ft | 469 kts | 146° |
| 2026-05-05 16:40 | 44.40257 | 16.03450 | 35037 ft | 469 kts | 146° |
| 2026-05-05 16:41 | 44.35070 | 16.08997 | 35044 ft | 469 kts | 146° |
| 2026-05-05 16:41 | 44.29889 | 16.14532 | 35048 ft | 469 kts | 146° |
| 2026-05-05 16:42 | 44.24703 | 16.20054 | 35053 ft | 469 kts | 146° |
| 2026-05-05 16:42 | 44.19516 | 16.25570 | 35049 ft | 470 kts | 146° |
| 2026-05-05 16:43 | 44.14306 | 16.31065 | 35052 ft | 469 kts | 148° |
| 2026-05-05 16:43 | 44.08888 | 16.36204 | 35057 ft | 467 kts | 151° |
| 2026-05-05 16:44 | 44.03390 | 16.41032 | 35071 ft | 467 kts | 152° |
| 2026-05-05 16:44 | 43.97906 | 16.45883 | 35062 ft | 468 kts | 151° |
| 2026-05-05 16:45 | 43.92446 | 16.50830 | 35071 ft | 469 kts | 150° |
| 2026-05-05 16:45 | 43.86991 | 16.55787 | 35075 ft | 469 kts | 150° |
| 2026-05-05 16:46 | 43.81534 | 16.60720 | 35063 ft | 469 kts | 150° |
| 2026-05-05 16:46 | 43.76044 | 16.65645 | 35062 ft | 469 kts | 151° |
| 2026-05-05 16:47 | 43.70564 | 16.70559 | 35073 ft | 469 kts | 151° |
| 2026-05-05 16:47 | 43.65085 | 16.75477 | 35060 ft | 471 kts | 151° |
| 2026-05-05 16:48 | 43.59585 | 16.80400 | 35063 ft | 471 kts | 151° |
| 2026-05-05 16:48 | 43.54083 | 16.85306 | 35064 ft | 472 kts | 151° |
| 2026-05-05 16:49 | 43.48562 | 16.90212 | 35063 ft | 472 kts | 151° |
| 2026-05-05 16:49 | 43.43043 | 16.95111 | 35061 ft | 472 kts | 151° |
| 2026-05-05 16:50 | 43.37522 | 17.00000 | 35065 ft | 472 kts | 151° |
| 2026-05-05 16:50 | 43.32003 | 17.04875 | 35051 ft | 472 kts | 151° |
| 2026-05-05 16:51 | 43.26477 | 17.09746 | 35052 ft | 473 kts | 151° |
| 2026-05-05 16:51 | 43.20937 | 17.14621 | 35046 ft | 473 kts | 151° |
| 2026-05-05 16:52 | 43.15363 | 17.19527 | 35056 ft | 473 kts | 151° |
| 2026-05-05 16:52 | 43.09818 | 17.24393 | 35048 ft | 473 kts | 151° |
| 2026-05-05 16:53 | 43.04273 | 17.29240 | 35049 ft | 473 kts | 151° |
| 2026-05-05 16:53 | 42.99010 | 17.34668 | 35062 ft | 477 kts | 142° |
| 2026-05-05 16:54 | 42.93998 | 17.40605 | 35058 ft | 477 kts | 142° |
| 2026-05-05 16:54 | 42.88970 | 17.46538 | 35052 ft | 478 kts | 142° |
| 2026-05-05 16:55 | 42.83933 | 17.52466 | 35043 ft | 479 kts | 142° |
| 2026-05-05 16:55 | 42.78879 | 17.58398 | 35047 ft | 479 kts | 142° |
| 2026-05-05 16:56 | 42.73825 | 17.64320 | 35061 ft | 480 kts | 142° |
| 2026-05-05 16:56 | 42.68768 | 17.70237 | 35067 ft | 480 kts | 142° |
| 2026-05-05 16:57 | 42.63696 | 17.76151 | 35075 ft | 480 kts | 142° |
| 2026-05-05 16:57 | 42.58616 | 17.82054 | 35057 ft | 482 kts | 142° |
| 2026-05-05 16:58 | 42.53517 | 17.87973 | 35059 ft | 482 kts | 143° |
| 2026-05-05 16:58 | 42.48412 | 17.93883 | 35066 ft | 483 kts | 143° |
| 2026-05-05 16:59 | 42.43304 | 17.99786 | 35073 ft | 483 kts | 143° |
| 2026-05-05 16:59 | 42.38146 | 18.05726 | 35071 ft | 483 kts | 143° |
| 2026-05-05 17:00 | 42.33023 | 18.11615 | 35078 ft | 483 kts | 143° |
| 2026-05-05 17:00 | 42.28769 | 18.16512 | 35080 ft | 483 kts | 143° |
| 2026-05-05 17:01 | 42.23649 | 18.22389 | 35082 ft | 483 kts | 143° |
| 2026-05-05 17:01 | 42.18517 | 18.28243 | 35078 ft | 483 kts | 143° |
| 2026-05-05 17:02 | 42.13397 | 18.34082 | 35062 ft | 483 kts | 143° |
| 2026-05-05 17:02 | 42.08263 | 18.39928 | 35056 ft | 483 kts | 143° |
| 2026-05-05 17:03 | 42.03126 | 18.45766 | 35057 ft | 484 kts | 143° |
| 2026-05-05 17:03 | 41.97966 | 18.51616 | 35049 ft | 485 kts | 143° |
| 2026-05-05 17:04 | 41.92794 | 18.57464 | 35055 ft | 487 kts | 143° |
| 2026-05-05 17:04 | 41.87615 | 18.63313 | 35042 ft | 488 kts | 144° |
| 2026-05-05 17:05 | 41.82408 | 18.69179 | 35046 ft | 489 kts | 144° |
| 2026-05-05 17:05 | 41.77162 | 18.75069 | 35057 ft | 490 kts | 144° |
| 2026-05-05 17:06 | 41.71961 | 18.80901 | 35066 ft | 490 kts | 144° |
| 2026-05-05 17:06 | 41.66694 | 18.86796 | 35061 ft | 491 kts | 143° |
| 2026-05-05 17:07 | 41.61455 | 18.92640 | 35050 ft | 491 kts | 144° |
| 2026-05-05 17:07 | 41.56192 | 18.98502 | 35062 ft | 492 kts | 144° |
| 2026-05-05 17:08 | 41.50934 | 19.04343 | 35069 ft | 492 kts | 144° |
| 2026-05-05 17:08 | 41.45464 | 19.09741 | 35070 ft | 485 kts | 156° |
| 2026-05-05 17:09 | 41.39326 | 19.13183 | 35064 ft | 478 kts | 165° |
| 2026-05-05 17:09 | 41.33060 | 19.16226 | 35059 ft | 480 kts | 165° |
| 2026-05-05 17:10 | 41.26774 | 19.19299 | 35063 ft | 481 kts | 165° |
| 2026-05-05 17:10 | 41.20492 | 19.22376 | 35067 ft | 482 kts | 165° |
| 2026-05-05 17:11 | 41.14197 | 19.25435 | 35072 ft | 482 kts | 165° |
| 2026-05-05 17:11 | 41.07890 | 19.28481 | 35076 ft | 482 kts | 165° |
| 2026-05-05 17:12 | 41.01579 | 19.31524 | 35083 ft | 483 kts | 165° |
| 2026-05-05 17:12 | 40.96282 | 19.34081 | 34853 ft | 483 kts | 165° |